Terminal Aerodrome Forecast
Issued by NWS Cleveland, OH

Home | Current Version | Previous Version | Text Only | Print | Product List | Glossary On
Versions: 1 2 3 4 5 6 7 8 9 10 11 12 13 14 15 16 17 18 19 20
000
FTUS41 KCLE 241416 AAB
TAFMFD
TAF AMD
KMFD 241416Z 2414/2512 12010KT P6SM SCT012 OVC070
      TEMPO 2414/2417 BKN012
     FM241700 12010KT P6SM VCSH OVC025
     FM242000 12010KT 6SM -SHRA OVC025
     FM250000 12012KT 4SM -SHRA OVC015
     FM250300 14012KT 3SM -SHRA OVC008=

USA.gov is the U.S. government's official web portal to all federal, state and local government web resources and services.